JBU987 KORH-KMCO
Flight info
| Callsign | JBU987 |
|---|---|
| Flight time | N/A |
| Altitude | 34000 |
| Route | ORW CCC Q97 SAWED MOXXY Q85 LPERD SNFLD3 |
| Aircraft | A320/M-SDE3FGHIRWY/LB1 |
Departure
| Time | 2026-05-03 20:52 |
|---|---|
| Airport | Worcester Regional Airport (KORH) |
Arrival
| Time | N/A |
|---|---|
| Airport | Orlando International Airport (KMCO) |
| Time | Latitude | Longitude | Altitude | Speed | Heading |
|---|---|---|---|---|---|
| 2026-05-03 20:35 | 42.26890 | -71.87089 | 1004 ft | 0 kts | 35° |
| 2026-05-03 20:45 | 42.27141 | -71.86856 | 1302 ft | 123 kts | 5° |
| 2026-05-03 20:45 | 42.26812 | -71.87135 | 1189 ft | 0 kts | 50° |
| 2026-05-03 20:45 | 42.26873 | -71.87184 | 1004 ft | 0 kts | 137° |
| 2026-05-03 20:50 | 42.26851 | -71.87153 | 1004 ft | 10 kts | 132° |
| 2026-05-03 20:50 | 42.26797 | -71.87073 | 1004 ft | 13 kts | 128° |
| 2026-05-03 20:50 | 42.26736 | -71.86977 | 1000 ft | 16 kts | 126° |
| 2026-05-03 20:50 | 42.26662 | -71.86888 | 1001 ft | 12 kts | 138° |
| 2026-05-03 20:51 | 42.26621 | -71.86804 | 1001 ft | 11 kts | 104° |
| 2026-05-03 20:51 | 42.26614 | -71.86685 | 1000 ft | 14 kts | 94° |
| 2026-05-03 20:51 | 42.26588 | -71.86556 | 1000 ft | 15 kts | 118° |
| 2026-05-03 20:51 | 42.26609 | -71.86540 | 1001 ft | 1 kts | 291° |
| 2026-05-03 20:52 | 42.26609 | -71.86564 | 1001 ft | 0 kts | 276° |
| 2026-05-03 20:52 | 42.26625 | -71.86890 | 1001 ft | 82 kts | 274° |
| 2026-05-03 20:52 | 42.26683 | -71.88018 | 1152 ft | 140 kts | 275° |
| 2026-05-03 20:52 | 42.26458 | -71.89305 | 2168 ft | 158 kts | 239° |
| 2026-05-03 20:53 | 42.25436 | -71.90162 | 2587 ft | 198 kts | 202° |
| 2026-05-03 20:53 | 42.23958 | -71.90454 | 2934 ft | 230 kts | 191° |
| 2026-05-03 20:53 | 42.22269 | -71.90619 | 3420 ft | 255 kts | 188° |
| 2026-05-03 20:53 | 42.21051 | -71.90727 | 3813 ft | 270 kts | 188° |
| 2026-05-03 20:54 | 42.19147 | -71.90911 | 4781 ft | 277 kts | 189° |
| 2026-05-03 20:54 | 42.15244 | -71.91364 | 6882 ft | 285 kts | 191° |
| 2026-05-03 20:54 | 42.13286 | -71.91628 | 7869 ft | 288 kts | 191° |
| 2026-05-03 20:55 | 42.11273 | -71.91911 | 8825 ft | 293 kts | 191° |
| 2026-05-03 20:55 | 42.09223 | -71.92208 | 9792 ft | 297 kts | 191° |
| 2026-05-03 20:55 | 42.07124 | -71.92513 | 10432 ft | 312 kts | 191° |
| 2026-05-03 20:55 | 42.04884 | -71.92850 | 10731 ft | 336 kts | 191° |
| 2026-05-03 20:56 | 42.02484 | -71.93210 | 11147 ft | 354 kts | 190° |
| 2026-05-03 20:56 | 42.00006 | -71.93570 | 11891 ft | 361 kts | 190° |
| 2026-05-03 20:56 | 41.97516 | -71.93925 | 12653 ft | 366 kts | 190° |
| 2026-05-03 20:56 | 41.94962 | -71.94287 | 13415 ft | 371 kts | 190° |
| 2026-05-03 20:57 | 41.92360 | -71.94656 | 14123 ft | 376 kts | 191° |
| 2026-05-03 20:57 | 41.89755 | -71.95025 | 14826 ft | 380 kts | 191° |
| 2026-05-03 20:57 | 41.87103 | -71.95409 | 15524 ft | 384 kts | 191° |
| 2026-05-03 20:57 | 41.84432 | -71.95800 | 16201 ft | 388 kts | 191° |
| 2026-05-03 20:58 | 41.81737 | -71.96190 | 16893 ft | 391 kts | 191° |
| 2026-05-03 20:58 | 41.79013 | -71.96583 | 17585 ft | 395 kts | 191° |
| 2026-05-03 20:58 | 41.76297 | -71.96973 | 18262 ft | 398 kts | 191° |
| 2026-05-03 20:58 | 41.73533 | -71.97371 | 18879 ft | 402 kts | 191° |
| 2026-05-03 20:59 | 41.70741 | -71.97771 | 19515 ft | 404 kts | 191° |
| 2026-05-03 20:59 | 41.67932 | -71.98175 | 20161 ft | 407 kts | 191° |
| 2026-05-03 20:59 | 41.65102 | -71.98583 | 20795 ft | 410 kts | 191° |
| 2026-05-03 20:59 | 41.62260 | -71.98995 | 21391 ft | 413 kts | 191° |
| 2026-05-03 21:00 | 41.59424 | -71.99594 | 21942 ft | 411 kts | 199° |
| 2026-05-03 21:00 | 41.57619 | -72.00305 | 22311 ft | 408 kts | 205° |
| 2026-05-03 21:00 | 41.54219 | -72.02487 | 23099 ft | 403 kts | 218° |
| 2026-05-03 21:00 | 41.51975 | -72.04693 | 23630 ft | 399 kts | 226° |
| 2026-05-03 21:01 | 41.50003 | -72.07208 | 24095 ft | 399 kts | 230° |
| 2026-05-03 21:01 | 41.48010 | -72.09801 | 24552 ft | 401 kts | 229° |
| 2026-05-03 21:01 | 41.45992 | -72.12410 | 25038 ft | 404 kts | 229° |
| 2026-05-03 21:01 | 41.43965 | -72.15020 | 25490 ft | 406 kts | 229° |
| 2026-05-03 21:02 | 41.41918 | -72.17644 | 25940 ft | 408 kts | 229° |
| 2026-05-03 21:02 | 41.39861 | -72.20276 | 26395 ft | 411 kts | 229° |
| 2026-05-03 21:02 | 41.37814 | -72.22894 | 26853 ft | 413 kts | 229° |
| 2026-05-03 21:02 | 41.35736 | -72.25557 | 27303 ft | 415 kts | 229° |
| 2026-05-03 21:03 | 41.33642 | -72.28245 | 27728 ft | 419 kts | 229° |
| 2026-05-03 21:03 | 41.31557 | -72.30924 | 28156 ft | 422 kts | 228° |
| 2026-05-03 21:03 | 41.29431 | -72.33650 | 28593 ft | 425 kts | 228° |
| 2026-05-03 21:03 | 41.27291 | -72.36385 | 29015 ft | 427 kts | 228° |
| 2026-05-03 21:04 | 41.25140 | -72.39130 | 29436 ft | 430 kts | 228° |
| 2026-05-03 21:04 | 41.22977 | -72.41887 | 29873 ft | 431 kts | 228° |
| 2026-05-03 21:04 | 41.20824 | -72.44627 | 30247 ft | 433 kts | 228° |
| 2026-05-03 21:04 | 41.18634 | -72.47410 | 30726 ft | 432 kts | 228° |
| 2026-05-03 21:05 | 41.16456 | -72.50174 | 31254 ft | 431 kts | 228° |
| 2026-05-03 21:05 | 41.14316 | -72.52888 | 31753 ft | 429 kts | 228° |
| 2026-05-03 21:05 | 41.12135 | -72.55656 | 32282 ft | 428 kts | 228° |
| 2026-05-03 21:05 | 41.10010 | -72.58353 | 32801 ft | 427 kts | 228° |
| 2026-05-03 21:06 | 41.07861 | -72.61080 | 33328 ft | 427 kts | 228° |
| 2026-05-03 21:06 | 41.05715 | -72.63798 | 33767 ft | 427 kts | 228° |
| 2026-05-03 21:06 | 41.03570 | -72.66516 | 33892 ft | 426 kts | 228° |
| 2026-05-03 21:06 | 41.01423 | -72.69228 | 33913 ft | 425 kts | 228° |
| 2026-05-03 21:07 | 40.97151 | -72.74619 | 33913 ft | 424 kts | 228° |
| 2026-05-03 21:07 | 40.92871 | -72.79936 | 33915 ft | 426 kts | 224° |
| 2026-05-03 21:08 | 40.88086 | -72.84645 | 33912 ft | 428 kts | 221° |
| 2026-05-03 21:08 | 40.83313 | -72.89292 | 33917 ft | 427 kts | 221° |
| 2026-05-03 21:09 | 40.78518 | -72.93962 | 33910 ft | 427 kts | 221° |
| 2026-05-03 21:09 | 40.73760 | -72.98583 | 33934 ft | 427 kts | 221° |
| 2026-05-03 21:10 | 40.68961 | -73.03231 | 33916 ft | 426 kts | 221° |
| 2026-05-03 21:10 | 40.64180 | -73.07866 | 33941 ft | 426 kts | 221° |
| 2026-05-03 21:11 | 40.59436 | -73.12455 | 33956 ft | 425 kts | 221° |
| 2026-05-03 21:11 | 40.54654 | -73.17056 | 33936 ft | 425 kts | 221° |
| 2026-05-03 21:12 | 40.49882 | -73.21651 | 33942 ft | 424 kts | 222° |
| 2026-05-03 21:12 | 40.45141 | -73.26209 | 33955 ft | 424 kts | 222° |
| 2026-05-03 21:13 | 40.40379 | -73.30777 | 33964 ft | 424 kts | 221° |
| 2026-05-03 21:13 | 40.35635 | -73.35311 | 33967 ft | 424 kts | 221° |
| 2026-05-03 21:14 | 40.30867 | -73.39875 | 33954 ft | 423 kts | 222° |
| 2026-05-03 21:14 | 40.26108 | -73.44417 | 33962 ft | 423 kts | 222° |
| 2026-05-03 21:15 | 40.21366 | -73.48920 | 33968 ft | 422 kts | 222° |
| 2026-05-03 21:15 | 40.16593 | -73.53430 | 33974 ft | 422 kts | 222° |
| 2026-05-03 21:16 | 40.11822 | -73.57933 | 33964 ft | 421 kts | 222° |
| 2026-05-03 21:16 | 40.07087 | -73.62393 | 33975 ft | 421 kts | 222° |
| 2026-05-03 21:17 | 40.03140 | -73.66112 | 33993 ft | 421 kts | 222° |
| 2026-05-03 21:17 | 39.97599 | -73.71305 | 33988 ft | 422 kts | 220° |
| 2026-05-03 21:18 | 39.92229 | -73.74694 | 33969 ft | 433 kts | 210° |
| 2026-05-03 21:18 | 39.86649 | -73.77654 | 33979 ft | 432 kts | 210° |
| 2026-05-03 21:19 | 39.81075 | -73.80625 | 33991 ft | 432 kts | 210° |
| 2026-05-03 21:19 | 39.75538 | -73.83579 | 33967 ft | 432 kts | 210° |
| 2026-05-03 21:20 | 39.69968 | -73.86540 | 33980 ft | 432 kts | 210° |
| 2026-05-03 21:20 | 39.64397 | -73.89489 | 33990 ft | 432 kts | 210° |
| 2026-05-03 21:21 | 39.58855 | -73.92417 | 33994 ft | 432 kts | 210° |
| 2026-05-03 21:21 | 39.53284 | -73.95366 | 33995 ft | 432 kts | 210° |
| 2026-05-03 21:22 | 39.47723 | -73.98300 | 34002 ft | 432 kts | 210° |
| 2026-05-03 21:22 | 39.42214 | -74.01355 | 34011 ft | 426 kts | 216° |
| 2026-05-03 21:23 | 39.37516 | -74.05775 | 34008 ft | 414 kts | 227° |
| 2026-05-03 21:23 | 39.33140 | -74.10579 | 33988 ft | 415 kts | 227° |
| 2026-05-03 21:24 | 39.28703 | -74.15420 | 33997 ft | 415 kts | 227° |
| 2026-05-03 21:24 | 39.24298 | -74.20208 | 34004 ft | 415 kts | 227° |
| 2026-05-03 21:25 | 39.19873 | -74.25015 | 34013 ft | 416 kts | 227° |
| 2026-05-03 21:25 | 39.15443 | -74.29823 | 33986 ft | 415 kts | 227° |
| 2026-05-03 21:26 | 39.11034 | -74.34589 | 34015 ft | 415 kts | 227° |
| 2026-05-03 21:26 | 39.06607 | -74.39381 | 34024 ft | 415 kts | 227° |
| 2026-05-03 21:27 | 39.02181 | -74.44159 | 34032 ft | 415 kts | 227° |
| 2026-05-03 21:27 | 38.97751 | -74.48936 | 34012 ft | 415 kts | 227° |
| 2026-05-03 21:28 | 38.93344 | -74.53680 | 34027 ft | 414 kts | 228° |
| 2026-05-03 21:28 | 38.89051 | -74.58620 | 34038 ft | 412 kts | 230° |
| 2026-05-03 21:29 | 38.84884 | -74.63600 | 34040 ft | 412 kts | 230° |
| 2026-05-03 21:29 | 38.80669 | -74.68601 | 34045 ft | 412 kts | 230° |
| 2026-05-03 21:30 | 38.76435 | -74.73537 | 34029 ft | 409 kts | 229° |
| 2026-05-03 21:30 | 38.72159 | -74.78319 | 34051 ft | 411 kts | 227° |
| 2026-05-03 21:31 | 38.67695 | -74.82917 | 34057 ft | 411 kts | 226° |
| 2026-05-03 21:31 | 38.63239 | -74.87443 | 34063 ft | 410 kts | 226° |
| 2026-05-03 21:32 | 38.58791 | -74.92037 | 34032 ft | 409 kts | 227° |
| 2026-05-03 21:32 | 38.54382 | -74.96623 | 34070 ft | 407 kts | 227° |
| 2026-05-03 21:33 | 38.50063 | -75.01217 | 34072 ft | 404 kts | 229° |
| 2026-05-03 21:33 | 38.45825 | -75.05946 | 34074 ft | 404 kts | 227° |
| 2026-05-03 21:34 | 38.41365 | -75.10383 | 34062 ft | 408 kts | 225° |
| 2026-05-03 21:34 | 38.36789 | -75.14605 | 34044 ft | 407 kts | 224° |
| 2026-05-03 21:35 | 38.32240 | -75.18809 | 34063 ft | 400 kts | 225° |
| 2026-05-03 21:35 | 38.27779 | -75.23028 | 34062 ft | 398 kts | 225° |
| 2026-05-03 21:36 | 38.23367 | -75.27228 | 34064 ft | 398 kts | 225° |
| 2026-05-03 21:36 | 38.18914 | -75.31444 | 34025 ft | 398 kts | 225° |
| 2026-05-03 21:37 | 38.14500 | -75.35609 | 34075 ft | 396 kts | 226° |
| 2026-05-03 21:37 | 38.10072 | -75.39771 | 34085 ft | 395 kts | 226° |
| 2026-05-03 21:38 | 38.05664 | -75.43915 | 34084 ft | 394 kts | 226° |
| 2026-05-03 21:38 | 38.01211 | -75.47943 | 34077 ft | 396 kts | 224° |
| 2026-05-03 21:39 | 37.96634 | -75.51872 | 34041 ft | 395 kts | 224° |
| 2026-05-03 21:39 | 37.92093 | -75.55765 | 34073 ft | 393 kts | 224° |
| 2026-05-03 21:40 | 37.87619 | -75.59657 | 34082 ft | 391 kts | 224° |
| 2026-05-03 21:40 | 37.83112 | -75.63547 | 34085 ft | 392 kts | 223° |
| 2026-05-03 21:41 | 37.78443 | -75.67146 | 34089 ft | 395 kts | 220° |
| 2026-05-03 21:41 | 37.73679 | -75.70618 | 34069 ft | 394 kts | 221° |
| 2026-05-03 21:42 | 37.69739 | -75.73519 | 34084 ft | 393 kts | 221° |
| 2026-05-03 21:42 | 37.65039 | -75.77035 | 34092 ft | 392 kts | 221° |
| 2026-05-03 21:43 | 37.59626 | -75.81104 | 34071 ft | 392 kts | 221° |
| 2026-05-03 21:43 | 37.55717 | -75.84034 | 34076 ft | 392 kts | 221° |
| 2026-05-03 21:44 | 37.51278 | -75.87882 | 34083 ft | 382 kts | 228° |
| 2026-05-03 21:44 | 37.47085 | -75.92140 | 34085 ft | 395 kts | 228° |
| 2026-05-03 21:45 | 37.42756 | -75.96547 | 34095 ft | 404 kts | 228° |
| 2026-05-03 21:45 | 37.38373 | -76.00952 | 34089 ft | 406 kts | 227° |
| 2026-05-03 21:46 | 37.33939 | -76.05384 | 34084 ft | 404 kts | 227° |
| 2026-05-03 21:46 | 37.29561 | -76.09773 | 34095 ft | 403 kts | 227° |
| 2026-05-03 21:47 | 37.25180 | -76.14176 | 34085 ft | 403 kts | 227° |
| 2026-05-03 21:47 | 37.20804 | -76.18572 | 34081 ft | 405 kts | 227° |
| 2026-05-03 21:48 | 37.16379 | -76.22997 | 34077 ft | 406 kts | 227° |
| 2026-05-03 21:48 | 37.11982 | -76.27378 | 34050 ft | 405 kts | 227° |
| 2026-05-03 21:49 | 37.07565 | -76.31780 | 34059 ft | 405 kts | 227° |
| 2026-05-03 21:49 | 37.03160 | -76.36165 | 34068 ft | 405 kts | 227° |
| 2026-05-03 21:50 | 36.98760 | -76.40535 | 34065 ft | 405 kts | 227° |
| 2026-05-03 21:50 | 36.94341 | -76.44925 | 34097 ft | 405 kts | 227° |
| 2026-05-03 21:51 | 36.89951 | -76.49281 | 34065 ft | 404 kts | 227° |
| 2026-05-03 21:51 | 36.85535 | -76.53650 | 34071 ft | 405 kts | 227° |
| 2026-05-03 21:52 | 36.81108 | -76.58021 | 34074 ft | 406 kts | 227° |
| 2026-05-03 21:52 | 36.76699 | -76.62375 | 34076 ft | 406 kts | 227° |
| 2026-05-03 21:53 | 36.72255 | -76.66749 | 34042 ft | 407 kts | 227° |
| 2026-05-03 21:53 | 36.67798 | -76.71125 | 34061 ft | 407 kts | 227° |
| 2026-05-03 21:54 | 36.63375 | -76.75475 | 34076 ft | 407 kts | 227° |
| 2026-05-03 21:54 | 36.58934 | -76.79840 | 34086 ft | 407 kts | 226° |
| 2026-05-03 21:55 | 36.54479 | -76.84196 | 34094 ft | 407 kts | 226° |
| 2026-05-03 21:55 | 36.50048 | -76.88521 | 34041 ft | 407 kts | 226° |
| 2026-05-03 21:56 | 36.45571 | -76.92886 | 34103 ft | 408 kts | 226° |
| 2026-05-03 21:56 | 36.41128 | -76.97224 | 34099 ft | 408 kts | 226° |
| 2026-05-03 21:57 | 36.36660 | -77.01572 | 34098 ft | 408 kts | 226° |
| 2026-05-03 21:57 | 36.32187 | -77.05914 | 34101 ft | 408 kts | 226° |
| 2026-05-03 21:58 | 36.27730 | -77.10225 | 34065 ft | 408 kts | 226° |
| 2026-05-03 21:58 | 36.23262 | -77.14554 | 34081 ft | 407 kts | 226° |
| 2026-05-03 21:59 | 36.18789 | -77.18885 | 34094 ft | 407 kts | 226° |
| 2026-05-03 21:59 | 36.14338 | -77.23187 | 34101 ft | 407 kts | 226° |
| 2026-05-03 22:00 | 36.09906 | -77.27465 | 34095 ft | 407 kts | 226° |
| 2026-05-03 22:00 | 36.05428 | -77.31776 | 34074 ft | 407 kts | 225° |
| 2026-05-03 22:01 | 36.00963 | -77.36097 | 34091 ft | 408 kts | 225° |
| 2026-05-03 22:01 | 35.96520 | -77.40402 | 34099 ft | 408 kts | 225° |
| 2026-05-03 22:02 | 35.92049 | -77.44718 | 34093 ft | 408 kts | 225° |
| 2026-05-03 22:02 | 35.87555 | -77.49049 | 34093 ft | 408 kts | 225° |
| 2026-05-03 22:03 | 35.83077 | -77.53365 | 34078 ft | 408 kts | 225° |
| 2026-05-03 22:03 | 35.78628 | -77.57642 | 34091 ft | 408 kts | 225° |
| 2026-05-03 22:04 | 35.74145 | -77.61944 | 34094 ft | 408 kts | 225° |
| 2026-05-03 22:04 | 35.69662 | -77.66256 | 34095 ft | 409 kts | 225° |
| 2026-05-03 22:05 | 35.65195 | -77.70541 | 34098 ft | 409 kts | 225° |
| 2026-05-03 22:05 | 35.60695 | -77.74844 | 34071 ft | 408 kts | 225° |
| 2026-05-03 22:06 | 35.56205 | -77.79126 | 34098 ft | 408 kts | 225° |
| 2026-05-03 22:06 | 35.51747 | -77.83379 | 34094 ft | 408 kts | 225° |
| 2026-05-03 22:07 | 35.47264 | -77.87653 | 34100 ft | 407 kts | 225° |
| 2026-05-03 22:07 | 35.42787 | -77.91920 | 34099 ft | 407 kts | 225° |
| 2026-05-03 22:08 | 35.38333 | -77.96152 | 34108 ft | 407 kts | 225° |
| 2026-05-03 22:08 | 35.33844 | -78.00402 | 34109 ft | 409 kts | 225° |
| 2026-05-03 22:09 | 35.29353 | -78.04644 | 34107 ft | 409 kts | 225° |
| 2026-05-03 22:10 | 35.22582 | -78.11041 | 34105 ft | 410 kts | 225° |
| 2026-05-03 22:10 | 35.18060 | -78.15307 | 34105 ft | 410 kts | 225° |
| 2026-05-03 22:11 | 35.13570 | -78.19542 | 34084 ft | 409 kts | 225° |
| 2026-05-03 22:11 | 35.09058 | -78.23790 | 34093 ft | 408 kts | 225° |
| 2026-05-03 22:12 | 35.04552 | -78.28017 | 34098 ft | 408 kts | 225° |
| 2026-05-03 22:12 | 35.00076 | -78.32211 | 34099 ft | 407 kts | 225° |
| 2026-05-03 22:13 | 34.95576 | -78.36438 | 34097 ft | 407 kts | 225° |
| 2026-05-03 22:13 | 34.91113 | -78.40624 | 34079 ft | 407 kts | 225° |
| 2026-05-03 22:14 | 34.86617 | -78.44823 | 34089 ft | 407 kts | 225° |
| 2026-05-03 22:14 | 34.82109 | -78.49030 | 34102 ft | 406 kts | 225° |
| 2026-05-03 22:15 | 34.77616 | -78.53210 | 34109 ft | 406 kts | 225° |
| 2026-05-03 22:15 | 34.73143 | -78.57365 | 34111 ft | 406 kts | 225° |
| 2026-05-03 22:16 | 34.68648 | -78.61541 | 34084 ft | 406 kts | 225° |
| 2026-05-03 22:16 | 34.64194 | -78.65676 | 34103 ft | 405 kts | 225° |
| 2026-05-03 22:17 | 34.59729 | -78.69820 | 34119 ft | 405 kts | 224° |
| 2026-05-03 22:17 | 34.55263 | -78.73954 | 34106 ft | 405 kts | 224° |
| 2026-05-03 22:18 | 34.50764 | -78.78106 | 34096 ft | 406 kts | 224° |
| 2026-05-03 22:18 | 34.46258 | -78.82251 | 34062 ft | 406 kts | 224° |
| 2026-05-03 22:19 | 34.41750 | -78.86322 | 34106 ft | 406 kts | 223° |
| 2026-05-03 22:19 | 34.37105 | -78.90232 | 34117 ft | 406 kts | 222° |
| 2026-05-03 22:20 | 34.32446 | -78.94080 | 34120 ft | 405 kts | 222° |
| 2026-05-03 22:20 | 34.27795 | -78.97965 | 34121 ft | 405 kts | 222° |
| 2026-05-03 22:21 | 34.23191 | -79.01842 | 34081 ft | 404 kts | 223° |
| 2026-05-03 22:21 | 34.18604 | -79.05694 | 34117 ft | 398 kts | 223° |
| 2026-05-03 22:22 | 34.14036 | -79.09537 | 34117 ft | 399 kts | 222° |
| 2026-05-03 22:22 | 34.09492 | -79.13349 | 34117 ft | 400 kts | 222° |
| 2026-05-03 22:23 | 34.04927 | -79.17156 | 34117 ft | 400 kts | 222° |
| 2026-05-03 22:23 | 34.00339 | -79.20983 | 34123 ft | 400 kts | 222° |
| 2026-05-03 22:24 | 33.95794 | -79.24778 | 34114 ft | 399 kts | 222° |
| 2026-05-03 22:24 | 33.91233 | -79.28583 | 34126 ft | 398 kts | 222° |
| 2026-05-03 22:25 | 33.86687 | -79.32380 | 34129 ft | 397 kts | 222° |
| 2026-05-03 22:25 | 33.82146 | -79.36159 | 34129 ft | 397 kts | 222° |
| 2026-05-03 22:26 | 33.77619 | -79.39919 | 34126 ft | 396 kts | 222° |
| 2026-05-03 22:26 | 33.73084 | -79.43684 | 34118 ft | 395 kts | 222° |
| 2026-05-03 22:27 | 33.68582 | -79.47411 | 34117 ft | 395 kts | 222° |
| 2026-05-03 22:27 | 33.64050 | -79.51170 | 34116 ft | 395 kts | 222° |
| 2026-05-03 22:28 | 33.59520 | -79.54910 | 34113 ft | 395 kts | 222° |
| 2026-05-03 22:28 | 33.55006 | -79.58624 | 34118 ft | 395 kts | 222° |
| 2026-05-03 22:29 | 33.50472 | -79.62357 | 34081 ft | 395 kts | 221° |
| 2026-05-03 22:29 | 33.45924 | -79.66109 | 34115 ft | 397 kts | 221° |
| 2026-05-03 22:30 | 33.41383 | -79.69842 | 34119 ft | 397 kts | 221° |
| 2026-05-03 22:30 | 33.36823 | -79.73584 | 34123 ft | 396 kts | 221° |
| 2026-05-03 22:31 | 33.32300 | -79.77301 | 34120 ft | 396 kts | 221° |
| 2026-05-03 22:31 | 33.27749 | -79.81025 | 34135 ft | 396 kts | 221° |
| 2026-05-03 22:32 | 33.23194 | -79.84742 | 34100 ft | 396 kts | 221° |
| 2026-05-03 22:32 | 33.19405 | -79.87835 | 34102 ft | 396 kts | 221° |
| 2026-05-03 22:33 | 33.14848 | -79.91561 | 34104 ft | 397 kts | 221° |
| 2026-05-03 22:33 | 33.10307 | -79.95259 | 34106 ft | 397 kts | 221° |
| 2026-05-03 22:34 | 33.05736 | -79.98967 | 34123 ft | 397 kts | 221° |
| 2026-05-03 22:34 | 33.01166 | -80.02674 | 34123 ft | 397 kts | 221° |
| 2026-05-03 22:35 | 32.96607 | -80.06380 | 34115 ft | 396 kts | 221° |
| 2026-05-03 22:35 | 32.92071 | -80.10057 | 34112 ft | 396 kts | 221° |
| 2026-05-03 22:36 | 32.87495 | -80.13764 | 34116 ft | 397 kts | 221° |
| 2026-05-03 22:36 | 32.82926 | -80.17460 | 34132 ft | 397 kts | 221° |
| 2026-05-03 22:37 | 32.78383 | -80.21120 | 34121 ft | 397 kts | 221° |
| 2026-05-03 22:37 | 32.73792 | -80.24820 | 34105 ft | 398 kts | 221° |
| 2026-05-03 22:38 | 32.69228 | -80.28494 | 34111 ft | 398 kts | 221° |
| 2026-05-03 22:38 | 32.64618 | -80.32194 | 34115 ft | 398 kts | 221° |
| 2026-05-03 22:39 | 32.60054 | -80.35861 | 34116 ft | 398 kts | 221° |
| 2026-05-03 22:39 | 32.55394 | -80.39457 | 34122 ft | 401 kts | 218° |
| 2026-05-03 22:40 | 32.50520 | -80.42741 | 34092 ft | 403 kts | 216° |
| 2026-05-03 22:40 | 32.45600 | -80.45941 | 34113 ft | 402 kts | 216° |
| 2026-05-03 22:41 | 32.40750 | -80.49168 | 34124 ft | 401 kts | 217° |
| 2026-05-03 22:41 | 32.35900 | -80.52442 | 34128 ft | 401 kts | 217° |
| 2026-05-03 22:42 | 32.31049 | -80.55723 | 34137 ft | 401 kts | 217° |
| 2026-05-03 22:42 | 32.26215 | -80.58980 | 34089 ft | 402 kts | 217° |
| 2026-05-03 22:43 | 32.21343 | -80.62252 | 34122 ft | 402 kts | 216° |
| 2026-05-03 22:43 | 32.16466 | -80.65511 | 34146 ft | 402 kts | 216° |
| 2026-05-03 22:44 | 32.11619 | -80.68744 | 34146 ft | 402 kts | 216° |
| 2026-05-03 22:44 | 32.06754 | -80.71997 | 34140 ft | 402 kts | 216° |
| 2026-05-03 22:45 | 32.01866 | -80.75257 | 34135 ft | 402 kts | 216° |
| 2026-05-03 22:45 | 31.97031 | -80.78481 | 34131 ft | 402 kts | 216° |
| 2026-05-03 22:46 | 31.92165 | -80.81732 | 34116 ft | 401 kts | 216° |
| 2026-05-03 22:46 | 31.87302 | -80.84975 | 34116 ft | 402 kts | 216° |
| 2026-05-03 22:47 | 31.82432 | -80.88207 | 34121 ft | 402 kts | 216° |
| 2026-05-03 22:47 | 31.77585 | -80.91413 | 34136 ft | 402 kts | 216° |
| 2026-05-03 22:48 | 31.72694 | -80.94650 | 34101 ft | 402 kts | 216° |
| 2026-05-03 22:48 | 31.67817 | -80.97883 | 34111 ft | 402 kts | 216° |
| 2026-05-03 22:49 | 31.62957 | -81.01092 | 34120 ft | 403 kts | 216° |
| 2026-05-03 22:49 | 31.58057 | -81.04318 | 34124 ft | 403 kts | 215° |
| 2026-05-03 22:50 | 31.53092 | -81.07431 | 34129 ft | 405 kts | 214° |
| 2026-05-03 22:50 | 31.48117 | -81.10437 | 34093 ft | 405 kts | 214° |
| 2026-05-03 22:51 | 31.43105 | -81.13467 | 34119 ft | 405 kts | 214° |
| 2026-05-03 22:51 | 31.38088 | -81.16522 | 34118 ft | 406 kts | 214° |
| 2026-05-03 22:52 | 31.33085 | -81.19537 | 34124 ft | 407 kts | 213° |
| 2026-05-03 22:52 | 31.28025 | -81.22528 | 34123 ft | 407 kts | 213° |
| 2026-05-03 22:53 | 31.22956 | -81.25516 | 34121 ft | 407 kts | 213° |
| 2026-05-03 22:53 | 31.17659 | -81.27948 | 34108 ft | 424 kts | 199° |
| 2026-05-03 22:53 | 31.14674 | -81.28286 | 34127 ft | 437 kts | 189° |
| 2026-05-03 22:54 | 31.11627 | -81.28272 | 34127 ft | 438 kts | 189° |
| 2026-05-03 22:54 | 31.05520 | -81.28233 | 34119 ft | 438 kts | 189° |
| 2026-05-03 22:55 | 30.99427 | -81.28206 | 34124 ft | 438 kts | 189° |
| 2026-05-03 22:55 | 30.93363 | -81.28195 | 34111 ft | 438 kts | 189° |
| 2026-05-03 22:56 | 30.87257 | -81.28184 | 34116 ft | 439 kts | 189° |
| 2026-05-03 22:56 | 30.81134 | -81.28163 | 34130 ft | 439 kts | 189° |
| 2026-05-03 22:57 | 30.75050 | -81.28153 | 34129 ft | 439 kts | 189° |
| 2026-05-03 22:57 | 30.68920 | -81.28148 | 34135 ft | 439 kts | 189° |
| 2026-05-03 22:58 | 30.62842 | -81.28134 | 34145 ft | 438 kts | 190° |
| 2026-05-03 22:58 | 30.56744 | -81.27997 | 34143 ft | 439 kts | 188° |
| 2026-05-03 22:59 | 30.50626 | -81.27508 | 34140 ft | 441 kts | 186° |
| 2026-05-03 22:59 | 30.44531 | -81.26946 | 34137 ft | 441 kts | 187° |
| 2026-05-03 23:00 | 30.38412 | -81.26450 | 34130 ft | 440 kts | 187° |
| 2026-05-03 23:00 | 30.32307 | -81.26009 | 34132 ft | 439 kts | 187° |